sensor_id;sensor_type;location;lat;lon;timestamp;temperature;humidity
4399;DHT22;2213;49.720;7.296;2022-08-19T00:02:06;21.30;97.30
4399;DHT22;2213;49.720;7.296;2022-08-19T00:04:35;21.20;97.30
4399;DHT22;2213;49.720;7.296;2022-08-19T00:07:06;21.30;97.30
4399;DHT22;2213;49.720;7.296;2022-08-19T00:09:35;21.30;97.30
4399;DHT22;2213;49.720;7.296;2022-08-19T00:12:05;21.20;97.40
4399;DHT22;2213;49.720;7.296;2022-08-19T00:14:36;21.20;97.50
4399;DHT22;2213;49.720;7.296;2022-08-19T00:17:07;21.20;97.60
4399;DHT22;2213;49.720;7.296;2022-08-19T00:19:37;21.10;97.70
4399;DHT22;2213;49.720;7.296;2022-08-19T00:22:06;21.10;97.70
4399;DHT22;2213;49.720;7.296;2022-08-19T00:24:35;21.10;97.70
4399;DHT22;2213;49.720;7.296;2022-08-19T00:27:05;21.20;97.50
4399;DHT22;2213;49.720;7.296;2022-08-19T00:29:53;21.10;97.60
4399;DHT22;2213;49.720;7.296;2022-08-19T00:32:23;21.10;97.60
4399;DHT22;2213;49.720;7.296;2022-08-19T00:34:53;21.10;97.70
4399;DHT22;2213;49.720;7.296;2022-08-19T00:37:22;21.00;97.70
4399;DHT22;2213;49.720;7.296;2022-08-19T00:39:53;21.00;97.70
4399;DHT22;2213;49.720;7.296;2022-08-19T00:42:24;21.00;97.80
4399;DHT22;2213;49.720;7.296;2022-08-19T00:44:57;21.00;97.80
4399;DHT22;2213;49.720;7.296;2022-08-19T00:47:26;21.00;97.80
4399;DHT22;2213;49.720;7.296;2022-08-19T00:49:57;20.90;97.90
4399;DHT22;2213;49.720;7.296;2022-08-19T00:52:29;20.90;97.90
4399;DHT22;2213;49.720;7.296;2022-08-19T00:55:02;20.80;97.90
4399;DHT22;2213;49.720;7.296;2022-08-19T00:57:37;20.80;97.90
4399;DHT22;2213;49.720;7.296;2022-08-19T01:00:13;20.80;98.00
4399;DHT22;2213;49.720;7.296;2022-08-19T01:02:44;20.70;98.00
4399;DHT22;2213;49.720;7.296;2022-08-19T01:05:17;20.70;98.10
4399;DHT22;2213;49.720;7.296;2022-08-19T01:07:49;20.60;98.50
4399;DHT22;2213;49.720;7.296;2022-08-19T01:10:20;20.70;98.20
4399;DHT22;2213;49.720;7.296;2022-08-19T01:12:55;20.60;98.30
4399;DHT22;2213;49.720;7.296;2022-08-19T01:15:30;20.60;98.10
4399;DHT22;2213;49.720;7.296;2022-08-19T01:18:07;20.60;98.00
4399;DHT22;2213;49.720;7.296;2022-08-19T01:20:38;20.70;98.10
4399;DHT22;2213;49.720;7.296;2022-08-19T01:23:10;20.60;98.20
4399;DHT22;2213;49.720;7.296;2022-08-19T01:25:44;20.60;98.10
4399;DHT22;2213;49.720;7.296;2022-08-19T01:28:18;20.50;98.30
4399;DHT22;2213;49.720;7.296;2022-08-19T01:31:06;20.50;98.30
4399;DHT22;2213;49.720;7.296;2022-08-19T01:33:55;20.40;98.40
4399;DHT22;2213;49.720;7.296;2022-08-19T01:36:30;20.30;98.60
4399;DHT22;2213;49.720;7.296;2022-08-19T01:39:04;20.30;98.60
4399;DHT22;2213;49.720;7.296;2022-08-19T01:41:35;20.30;98.70
4399;DHT22;2213;49.720;7.296;2022-08-19T01:44:04;20.20;98.70
4399;DHT22;2213;49.720;7.296;2022-08-19T01:46:47;20.20;98.70
4399;DHT22;2213;49.720;7.296;2022-08-19T01:49:17;20.10;98.80
4399;DHT22;2213;49.720;7.296;2022-08-19T01:51:48;20.10;98.80
4399;DHT22;2213;49.720;7.296;2022-08-19T01:54:22;20.10;98.90
4399;DHT22;2213;49.720;7.296;2022-08-19T01:56:58;20.10;99.00
4399;DHT22;2213;49.720;7.296;2022-08-19T01:59:30;20.00;99.00
4399;DHT22;2213;49.720;7.296;2022-08-19T02:02:00;20.00;99.10
4399;DHT22;2213;49.720;7.296;2022-08-19T02:04:29;19.90;99.10
4399;DHT22;2213;49.720;7.296;2022-08-19T02:06:57;19.90;99.10
4399;DHT22;2213;49.720;7.296;2022-08-19T02:09:28;19.90;99.20
4399;DHT22;2213;49.720;7.296;2022-08-19T02:11:59;19.90;99.10
4399;DHT22;2213;49.720;7.296;2022-08-19T02:14:28;19.90;99.10
4399;DHT22;2213;49.720;7.296;2022-08-19T02:16:57;19.80;99.30
4399;DHT22;2213;49.720;7.296;2022-08-19T02:19:29;19.80;99.30
4399;DHT22;2213;49.720;7.296;2022-08-19T02:22:00;19.80;99.20
4399;DHT22;2213;49.720;7.296;2022-08-19T02:24:30;19.80;99.20
4399;DHT22;2213;49.720;7.296;2022-08-19T02:26:58;19.80;99.10
4399;DHT22;2213;49.720;7.296;2022-08-19T02:29:27;19.80;99.20
4399;DHT22;2213;49.720;7.296;2022-08-19T02:31:56;19.80;99.00
4399;DHT22;2213;49.720;7.296;2022-08-19T02:34:25;19.70;99.20
4399;DHT22;2213;49.720;7.296;2022-08-19T02:36:53;19.60;99.30
4399;DHT22;2213;49.720;7.296;2022-08-19T02:39:30;19.50;99.50
4399;DHT22;2213;49.720;7.296;2022-08-19T02:41:58;19.50;99.60
4399;DHT22;2213;49.720;7.296;2022-08-19T02:44:27;19.50;99.40
4399;DHT22;2213;49.720;7.296;2022-08-19T02:46:58;19.60;99.40
4399;DHT22;2213;49.720;7.296;2022-08-19T02:49:26;19.50;99.60
4399;DHT22;2213;49.720;7.296;2022-08-19T02:52:00;19.40;99.70
4399;DHT22;2213;49.720;7.296;2022-08-19T02:54:31;19.40;99.80
4399;DHT22;2213;49.720;7.296;2022-08-19T02:57:00;19.30;99.90
4399;DHT22;2213;49.720;7.296;2022-08-19T02:59:30;19.20;99.90
4399;DHT22;2213;49.720;7.296;2022-08-19T03:01:59;19.30;99.90
4399;DHT22;2213;49.720;7.296;2022-08-19T03:04:28;19.30;99.90
4399;DHT22;2213;49.720;7.296;2022-08-19T03:06:57;19.20;99.90
4399;DHT22;2213;49.720;7.296;2022-08-19T03:09:39;19.30;99.70
4399;DHT22;2213;49.720;7.296;2022-08-19T03:12:10;19.30;99.80
4399;DHT22;2213;49.720;7.296;2022-08-19T03:14:39;19.30;99.90
4399;DHT22;2213;49.720;7.296;2022-08-19T03:17:08;19.20;99.90
4399;DHT22;2213;49.720;7.296;2022-08-19T03:19:37;19.20;99.90
4399;DHT22;2213;49.720;7.296;2022-08-19T03:22:06;19.10;99.90
4399;DHT22;2213;49.720;7.296;2022-08-19T03:24:35;19.10;99.90
4399;DHT22;2213;49.720;7.296;2022-08-19T03:27:07;19.10;99.90
4399;DHT22;2213;49.720;7.296;2022-08-19T03:29:37;19.10;99.90
4399;DHT22;2213;49.720;7.296;2022-08-19T03:32:10;19.10;99.90
4399;DHT22;2213;49.720;7.296;2022-08-19T03:34:59;19.10;99.90
4399;DHT22;2213;49.720;7.296;2022-08-19T03:37:28;19.00;99.90
4399;DHT22;2213;49.720;7.296;2022-08-19T03:39:57;19.00;99.90
4399;DHT22;2213;49.720;7.296;2022-08-19T03:42:28;18.90;99.90
4399;DHT22;2213;49.720;7.296;2022-08-19T03:45:17;19.00;99.90
4399;DHT22;2213;49.720;7.296;2022-08-19T03:47:46;18.90;99.90
4399;DHT22;2213;49.720;7.296;2022-08-19T03:50:15;18.90;99.90
4399;DHT22;2213;49.720;7.296;2022-08-19T03:52:48;18.90;99.90
4399;DHT22;2213;49.720;7.296;2022-08-19T03:55:19;18.90;99.90
4399;DHT22;2213;49.720;7.296;2022-08-19T03:57:49;18.90;99.90
4399;DHT22;2213;49.720;7.296;2022-08-19T04:00:25;18.90;99.90
4399;DHT22;2213;49.720;7.296;2022-08-19T04:02:53;18.90;99.90
4399;DHT22;2213;49.720;7.296;2022-08-19T04:05:27;18.90;99.90
4399;DHT22;2213;49.720;7.296;2022-08-19T04:07:56;18.80;99.90
4399;DHT22;2213;49.720;7.296;2022-08-19T04:10:26;18.70;99.90
4399;DHT22;2213;49.720;7.296;2022-08-19T04:12:57;18.80;99.90
4399;DHT22;2213;49.720;7.296;2022-08-19T04:15:26;18.70;99.90
4399;DHT22;2213;49.720;7.296;2022-08-19T04:17:58;18.70;99.90
4399;DHT22;2213;49.720;7.296;2022-08-19T04:20:28;18.70;99.90
4399;DHT22;2213;49.720;7.296;2022-08-19T04:22:57;18.70;99.90
4399;DHT22;2213;49.720;7.296;2022-08-19T04:25:26;18.60;99.90
4399;DHT22;2213;49.720;7.296;2022-08-19T04:27:56;18.60;99.90
4399;DHT22;2213;49.720;7.296;2022-08-19T04:30:25;18.50;99.90
4399;DHT22;2213;49.720;7.296;2022-08-19T04:32:54;18.50;99.90
4399;DHT22;2213;49.720;7.296;2022-08-19T04:35:25;18.60;99.90
4399;DHT22;2213;49.720;7.296;2022-08-19T04:37:54;18.50;99.90
4399;DHT22;2213;49.720;7.296;2022-08-19T04:40:23;18.50;99.90
4399;DHT22;2213;49.720;7.296;2022-08-19T04:43:11;18.50;99.90
4399;DHT22;2213;49.720;7.296;2022-08-19T04:45:42;18.50;99.90
4399;DHT22;2213;49.720;7.296;2022-08-19T04:48:11;18.50;99.90
4399;DHT22;2213;49.720;7.296;2022-08-19T04:50:54;18.40;99.90
4399;DHT22;2213;49.720;7.296;2022-08-19T04:53:26;18.30;99.90
4399;DHT22;2213;49.720;7.296;2022-08-19T04:56:07;18.40;99.90
4399;DHT22;2213;49.720;7.296;2022-08-19T04:58:40;18.40;99.90
4399;DHT22;2213;49.720;7.296;2022-08-19T05:01:12;18.40;99.90
4399;DHT22;2213;49.720;7.296;2022-08-19T05:03:42;18.30;99.90
4399;DHT22;2213;49.720;7.296;2022-08-19T05:06:14;18.40;99.90
4399;DHT22;2213;49.720;7.296;2022-08-19T05:08:45;18.40;99.90
4399;DHT22;2213;49.720;7.296;2022-08-19T05:11:17;18.40;99.90
4399;DHT22;2213;49.720;7.296;2022-08-19T05:13:54;18.40;99.90
4399;DHT22;2213;49.720;7.296;2022-08-19T05:16:26;18.40;99.90
4399;DHT22;2213;49.720;7.296;2022-08-19T05:18:55;18.40;99.90
4399;DHT22;2213;49.720;7.296;2022-08-19T05:21:42;18.30;99.90
4399;DHT22;2213;49.720;7.296;2022-08-19T05:24:29;18.30;99.90
4399;DHT22;2213;49.720;7.296;2022-08-19T05:27:01;18.30;99.90
4399;DHT22;2213;49.720;7.296;2022-08-19T05:29:34;18.30;99.90
4399;DHT22;2213;49.720;7.296;2022-08-19T05:32:05;18.30;99.90
4399;DHT22;2213;49.720;7.296;2022-08-19T05:34:37;18.30;99.90
4399;DHT22;2213;49.720;7.296;2022-08-19T05:37:05;18.40;99.90
4399;DHT22;2213;49.720;7.296;2022-08-19T05:39:36;18.40;99.90
4399;DHT22;2213;49.720;7.296;2022-08-19T05:42:09;18.40;99.90
4399;DHT22;2213;49.720;7.296;2022-08-19T05:44:42;18.40;99.90
4399;DHT22;2213;49.720;7.296;2022-08-19T05:47:13;18.30;99.90
4399;DHT22;2213;49.720;7.296;2022-08-19T05:49:42;18.30;99.90
4399;DHT22;2213;49.720;7.296;2022-08-19T05:52:13;18.30;99.90
4399;DHT22;2213;49.720;7.296;2022-08-19T05:54:45;18.30;99.90
4399;DHT22;2213;49.720;7.296;2022-08-19T05:57:18;18.30;99.90
4399;DHT22;2213;49.720;7.296;2022-08-19T05:59:49;18.30;99.90
4399;DHT22;2213;49.720;7.296;2022-08-19T06:02:24;18.20;99.90
4399;DHT22;2213;49.720;7.296;2022-08-19T06:04:53;18.20;99.90
4399;DHT22;2213;49.720;7.296;2022-08-19T06:07:22;18.30;99.90
4399;DHT22;2213;49.720;7.296;2022-08-19T06:09:52;18.30;99.90
4399;DHT22;2213;49.720;7.296;2022-08-19T06:12:28;18.20;99.90
4399;DHT22;2213;49.720;7.296;2022-08-19T06:15:03;18.20;99.90
4399;DHT22;2213;49.720;7.296;2022-08-19T06:17:37;18.20;99.90
4399;DHT22;2213;49.720;7.296;2022-08-19T06:20:08;18.30;99.90
4399;DHT22;2213;49.720;7.296;2022-08-19T06:22:40;18.20;99.90
4399;DHT22;2213;49.720;7.296;2022-08-19T06:25:14;18.20;99.90
4399;DHT22;2213;49.720;7.296;2022-08-19T06:27:44;18.20;99.90
4399;DHT22;2213;49.720;7.296;2022-08-19T06:30:35;18.30;99.90
4399;DHT22;2213;49.720;7.296;2022-08-19T06:33:04;18.30;99.90
4399;DHT22;2213;49.720;7.296;2022-08-19T06:35:37;18.30;99.90
4399;DHT22;2213;49.720;7.296;2022-08-19T06:38:07;18.30;99.90
4399;DHT22;2213;49.720;7.296;2022-08-19T06:40:38;18.30;99.90
4399;DHT22;2213;49.720;7.296;2022-08-19T06:43:07;18.30;99.90
4399;DHT22;2213;49.720;7.296;2022-08-19T06:45:38;18.30;99.90
4399;DHT22;2213;49.720;7.296;2022-08-19T06:48:08;18.30;99.90
4399;DHT22;2213;49.720;7.296;2022-08-19T06:50:37;18.40;99.90
4399;DHT22;2213;49.720;7.296;2022-08-19T06:53:07;18.40;99.90
4399;DHT22;2213;49.720;7.296;2022-08-19T06:55:38;18.40;99.90
4399;DHT22;2213;49.720;7.296;2022-08-19T06:58:08;18.40;99.90
4399;DHT22;2213;49.720;7.296;2022-08-19T07:00:39;18.50;99.90
4399;DHT22;2213;49.720;7.296;2022-08-19T07:03:09;18.60;99.90
4399;DHT22;2213;49.720;7.296;2022-08-19T07:05:40;18.60;99.90
4399;DHT22;2213;49.720;7.296;2022-08-19T07:08:12;18.60;99.90
4399;DHT22;2213;49.720;7.296;2022-08-19T07:10:43;18.70;99.90
4399;DHT22;2213;49.720;7.296;2022-08-19T07:13:12;18.70;99.90
4399;DHT22;2213;49.720;7.296;2022-08-19T07:15:42;18.80;99.90
4399;DHT22;2213;49.720;7.296;2022-08-19T07:18:13;18.90;99.90
4399;DHT22;2213;49.720;7.296;2022-08-19T07:20:45;19.00;99.90
4399;DHT22;2213;49.720;7.296;2022-08-19T07:23:14;19.10;99.90
4399;DHT22;2213;49.720;7.296;2022-08-19T07:25:43;19.10;99.90
4399;DHT22;2213;49.720;7.296;2022-08-19T07:28:19;19.20;99.90
4399;DHT22;2213;49.720;7.296;2022-08-19T07:30:52;19.30;99.90
4399;DHT22;2213;49.720;7.296;2022-08-19T07:33:21;19.40;99.90
4399;DHT22;2213;49.720;7.296;2022-08-19T07:35:54;19.50;99.90
4399;DHT22;2213;49.720;7.296;2022-08-19T07:38:22;19.70;99.90
4399;DHT22;2213;49.720;7.296;2022-08-19T07:40:51;19.80;99.90
4399;DHT22;2213;49.720;7.296;2022-08-19T07:43:20;20.00;99.90
4399;DHT22;2213;49.720;7.296;2022-08-19T07:46:02;20.10;99.90
4399;DHT22;2213;49.720;7.296;2022-08-19T07:48:32;20.30;99.90
4399;DHT22;2213;49.720;7.296;2022-08-19T07:51:04;20.40;99.90
4399;DHT22;2213;49.720;7.296;2022-08-19T07:53:36;20.60;99.90
4399;DHT22;2213;49.720;7.296;2022-08-19T07:56:06;20.70;99.90
4399;DHT22;2213;49.720;7.296;2022-08-19T07:58:41;20.70;99.90
4399;DHT22;2213;49.720;7.296;2022-08-19T08:01:15;20.90;99.90
4399;DHT22;2213;49.720;7.296;2022-08-19T08:03:47;20.90;99.90
4399;DHT22;2213;49.720;7.296;2022-08-19T08:06:34;21.00;99.90
4399;DHT22;2213;49.720;7.296;2022-08-19T08:09:23;21.10;99.90
4399;DHT22;2213;49.720;7.296;2022-08-19T08:11:56;21.30;99.40
4399;DHT22;2213;49.720;7.296;2022-08-19T08:14:38;21.30;99.20
4399;DHT22;2213;49.720;7.296;2022-08-19T08:17:15;21.40;98.90
4399;DHT22;2213;49.720;7.296;2022-08-19T08:20:06;21.50;98.20
4399;DHT22;2213;49.720;7.296;2022-08-19T08:22:36;21.60;98.00
4399;DHT22;2213;49.720;7.296;2022-08-19T08:25:23;21.70;97.90
4399;DHT22;2213;49.720;7.296;2022-08-19T08:27:59;21.80;97.80
4399;DHT22;2213;49.720;7.296;2022-08-19T08:30:29;21.80;97.10
4399;DHT22;2213;49.720;7.296;2022-08-19T08:33:01;21.80;96.60
4399;DHT22;2213;49.720;7.296;2022-08-19T08:35:30;21.90;96.60
4399;DHT22;2213;49.720;7.296;2022-08-19T08:38:00;22.00;96.60
4399;DHT22;2213;49.720;7.296;2022-08-19T08:40:38;22.00;96.40
4399;DHT22;2213;49.720;7.296;2022-08-19T08:43:23;22.00;96.30
4399;DHT22;2213;49.720;7.296;2022-08-19T08:46:01;22.10;96.00
4399;DHT22;2213;49.720;7.296;2022-08-19T08:48:39;22.10;95.80
4399;DHT22;2213;49.720;7.296;2022-08-19T08:51:26;22.20;95.90
4399;DHT22;2213;49.720;7.296;2022-08-19T08:54:07;22.30;94.60
4399;DHT22;2213;49.720;7.296;2022-08-19T08:56:38;22.30;94.90
4399;DHT22;2213;49.720;7.296;2022-08-19T08:59:14;22.40;94.40
4399;DHT22;2213;49.720;7.296;2022-08-19T09:01:47;22.40;94.30
4399;DHT22;2213;49.720;7.296;2022-08-19T09:04:17;22.50;94.10
4399;DHT22;2213;49.720;7.296;2022-08-19T09:06:53;22.50;94.00
4399;DHT22;2213;49.720;7.296;2022-08-19T09:09:52;22.70;93.60
4399;DHT22;2213;49.720;7.296;2022-08-19T09:12:33;22.70;93.50
4399;DHT22;2213;49.720;7.296;2022-08-19T09:15:12;22.80;93.20
4399;DHT22;2213;49.720;7.296;2022-08-19T09:17:42;22.80;93.30
4399;DHT22;2213;49.720;7.296;2022-08-19T09:20:20;22.80;93.60
4399;DHT22;2213;49.720;7.296;2022-08-19T09:22:52;22.80;93.50
4399;DHT22;2213;49.720;7.296;2022-08-19T09:25:22;22.90;93.30
4399;DHT22;2213;49.720;7.296;2022-08-19T09:27:56;22.90;93.30
4399;DHT22;2213;49.720;7.296;2022-08-19T09:30:41;23.00;93.20
4399;DHT22;2213;49.720;7.296;2022-08-19T09:33:10;23.00;93.30
4399;DHT22;2213;49.720;7.296;2022-08-19T09:35:41;23.10;92.60
4399;DHT22;2213;49.720;7.296;2022-08-19T09:38:19;23.20;92.60
4399;DHT22;2213;49.720;7.296;2022-08-19T09:40:48;23.20;92.50
4399;DHT22;2213;49.720;7.296;2022-08-19T09:43:17;23.10;91.90
4399;DHT22;2213;49.720;7.296;2022-08-19T09:46:00;23.10;92.30
4399;DHT22;2213;49.720;7.296;2022-08-19T09:48:29;23.10;92.40
4399;DHT22;2213;49.720;7.296;2022-08-19T09:51:04;23.20;92.00
4399;DHT22;2213;49.720;7.296;2022-08-19T09:53:38;23.40;91.90
4399;DHT22;2213;49.720;7.296;2022-08-19T09:56:07;23.40;91.80
4399;DHT22;2213;49.720;7.296;2022-08-19T09:58:37;23.40;92.00
4399;DHT22;2213;49.720;7.296;2022-08-19T10:01:07;23.40;92.20
4399;DHT22;2213;49.720;7.296;2022-08-19T10:03:36;23.40;92.20
4399;DHT22;2213;49.720;7.296;2022-08-19T10:06:06;23.50;91.30
4399;DHT22;2213;49.720;7.296;2022-08-19T10:08:45;23.50;91.00
4399;DHT22;2213;49.720;7.296;2022-08-19T10:11:17;23.60;91.10
4399;DHT22;2213;49.720;7.296;2022-08-19T10:14:00;23.60;91.00
4399;DHT22;2213;49.720;7.296;2022-08-19T10:16:29;23.60;90.30
4399;DHT22;2213;49.720;7.296;2022-08-19T10:19:06;23.60;90.80
4399;DHT22;2213;49.720;7.296;2022-08-19T10:21:37;23.60;90.80
4399;DHT22;2213;49.720;7.296;2022-08-19T10:24:07;23.70;91.20
4399;DHT22;2213;49.720;7.296;2022-08-19T10:26:39;23.90;90.80
4399;DHT22;2213;49.720;7.296;2022-08-19T10:29:12;23.80;90.70
4399;DHT22;2213;49.720;7.296;2022-08-19T10:31:59;23.80;90.70
4399;DHT22;2213;49.720;7.296;2022-08-19T10:34:30;23.90;91.00
4399;DHT22;2213;49.720;7.296;2022-08-19T10:37:02;24.00;91.30
4399;DHT22;2213;49.720;7.296;2022-08-19T10:39:36;24.00;91.20
4399;DHT22;2213;49.720;7.296;2022-08-19T10:42:09;24.10;90.60
4399;DHT22;2213;49.720;7.296;2022-08-19T10:44:40;24.10;90.00
4399;DHT22;2213;49.720;7.296;2022-08-19T10:47:10;24.10;90.30
4399;DHT22;2213;49.720;7.296;2022-08-19T10:49:52;24.00;90.50
4399;DHT22;2213;49.720;7.296;2022-08-19T10:52:42;24.00;90.80
4399;DHT22;2213;49.720;7.296;2022-08-19T10:55:19;24.20;90.70
4399;DHT22;2213;49.720;7.296;2022-08-19T10:58:11;24.20;90.60
4399;DHT22;2213;49.720;7.296;2022-08-19T11:00:42;24.20;90.10
4399;DHT22;2213;49.720;7.296;2022-08-19T11:03:12;24.30;90.30
4399;DHT22;2213;49.720;7.296;2022-08-19T11:05:41;24.30;90.40
4399;DHT22;2213;49.720;7.296;2022-08-19T11:08:11;24.40;90.70
4399;DHT22;2213;49.720;7.296;2022-08-19T11:10:49;24.40;90.20
4399;DHT22;2213;49.720;7.296;2022-08-19T11:13:20;24.50;90.30
4399;DHT22;2213;49.720;7.296;2022-08-19T11:15:56;24.60;90.30
4399;DHT22;2213;49.720;7.296;2022-08-19T11:18:36;24.80;87.40
4399;DHT22;2213;49.720;7.296;2022-08-19T11:21:08;24.80;87.50
4399;DHT22;2213;49.720;7.296;2022-08-19T11:23:41;24.90;88.10
4399;DHT22;2213;49.720;7.296;2022-08-19T11:26:10;24.90;88.10
4399;DHT22;2213;49.720;7.296;2022-08-19T11:28:39;24.90;87.70
4399;DHT22;2213;49.720;7.296;2022-08-19T11:31:10;25.00;87.10
4399;DHT22;2213;49.720;7.296;2022-08-19T11:33:40;25.10;87.40
4399;DHT22;2213;49.720;7.296;2022-08-19T11:36:14;25.10;87.10
4399;DHT22;2213;49.720;7.296;2022-08-19T11:38:45;25.20;86.70
4399;DHT22;2213;49.720;7.296;2022-08-19T11:41:16;25.20;86.90
4399;DHT22;2213;49.720;7.296;2022-08-19T11:43:46;25.20;87.30
4399;DHT22;2213;49.720;7.296;2022-08-19T11:46:16;25.30;87.20
4399;DHT22;2213;49.720;7.296;2022-08-19T11:48:45;25.30;86.90
4399;DHT22;2213;49.720;7.296;2022-08-19T11:51:17;25.40;86.00
4399;DHT22;2213;49.720;7.296;2022-08-19T11:53:49;25.50;85.80
4399;DHT22;2213;49.720;7.296;2022-08-19T11:56:19;25.40;85.50
4399;DHT22;2213;49.720;7.296;2022-08-19T11:58:50;25.50;85.50
4399;DHT22;2213;49.720;7.296;2022-08-19T12:01:22;25.50;85.60
4399;DHT22;2213;49.720;7.296;2022-08-19T12:03:53;25.60;85.80
4399;DHT22;2213;49.720;7.296;2022-08-19T12:06:25;25.60;85.10
4399;DHT22;2213;49.720;7.296;2022-08-19T12:08:58;25.60;84.70
4399;DHT22;2213;49.720;7.296;2022-08-19T12:11:28;25.50;85.20
4399;DHT22;2213;49.720;7.296;2022-08-19T12:14:00;25.50;84.80
4399;DHT22;2213;49.720;7.296;2022-08-19T12:16:30;25.60;85.20
4399;DHT22;2213;49.720;7.296;2022-08-19T12:19:08;25.60;84.70
4399;DHT22;2213;49.720;7.296;2022-08-19T12:21:37;25.50;85.10
4399;DHT22;2213;49.720;7.296;2022-08-19T12:24:09;25.60;85.60
4399;DHT22;2213;49.720;7.296;2022-08-19T12:26:38;25.70;85.00
4399;DHT22;2213;49.720;7.296;2022-08-19T12:29:19;25.60;84.90
4399;DHT22;2213;49.720;7.296;2022-08-19T12:31:57;25.60;85.60
4399;DHT22;2213;49.720;7.296;2022-08-19T12:34:30;25.70;85.50
4399;DHT22;2213;49.720;7.296;2022-08-19T12:37:03;25.80;85.20
4399;DHT22;2213;49.720;7.296;2022-08-19T12:39:39;25.60;84.90
4399;DHT22;2213;49.720;7.296;2022-08-19T12:42:13;25.80;84.80
4399;DHT22;2213;49.720;7.296;2022-08-19T12:44:43;25.80;84.40
4399;DHT22;2213;49.720;7.296;2022-08-19T12:47:13;25.80;84.40
4399;DHT22;2213;49.720;7.296;2022-08-19T12:49:42;25.70;84.60
4399;DHT22;2213;49.720;7.296;2022-08-19T12:52:23;25.70;85.10
4399;DHT22;2213;49.720;7.296;2022-08-19T12:54:56;25.80;84.10
4399;DHT22;2213;49.720;7.296;2022-08-19T12:57:27;25.70;85.10
4399;DHT22;2213;49.720;7.296;2022-08-19T13:00:01;25.80;84.90
4399;DHT22;2213;49.720;7.296;2022-08-19T13:02:33;25.80;84.60
4399;DHT22;2213;49.720;7.296;2022-08-19T13:05:06;25.80;85.10
4399;DHT22;2213;49.720;7.296;2022-08-19T13:07:40;25.80;82.60
4399;DHT22;2213;49.720;7.296;2022-08-19T13:10:14;26.00;81.60
4399;DHT22;2213;49.720;7.296;2022-08-19T13:12:46;26.10;81.90
4399;DHT22;2213;49.720;7.296;2022-08-19T13:15:18;26.20;82.10
4399;DHT22;2213;49.720;7.296;2022-08-19T13:17:51;26.20;81.20
4399;DHT22;2213;49.720;7.296;2022-08-19T13:20:23;26.20;80.80
4399;DHT22;2213;49.720;7.296;2022-08-19T13:22:53;26.30;80.70
4399;DHT22;2213;49.720;7.296;2022-08-19T13:25:25;26.50;80.70
4399;DHT22;2213;49.720;7.296;2022-08-19T13:27:54;26.50;80.90
4399;DHT22;2213;49.720;7.296;2022-08-19T13:30:23;26.60;79.40
4399;DHT22;2213;49.720;7.296;2022-08-19T13:33:09;26.80;80.20
4399;DHT22;2213;49.720;7.296;2022-08-19T13:35:45;26.80;81.00
4399;DHT22;2213;49.720;7.296;2022-08-19T13:38:24;26.80;81.00
4399;DHT22;2213;49.720;7.296;2022-08-19T13:40:55;26.90;80.70
4399;DHT22;2213;49.720;7.296;2022-08-19T13:43:26;26.70;79.90
4399;DHT22;2213;49.720;7.296;2022-08-19T13:45:56;26.90;79.40
4399;DHT22;2213;49.720;7.296;2022-08-19T13:48:25;27.00;79.70
4399;DHT22;2213;49.720;7.296;2022-08-19T13:50:54;27.00;79.60
4399;DHT22;2213;49.720;7.296;2022-08-19T13:53:23;27.10;79.30
4399;DHT22;2213;49.720;7.296;2022-08-19T13:55:54;27.30;77.50
4399;DHT22;2213;49.720;7.296;2022-08-19T13:58:22;27.40;77.90
4399;DHT22;2213;49.720;7.296;2022-08-19T14:00:51;27.40;78.30
4399;DHT22;2213;49.720;7.296;2022-08-19T14:03:20;27.60;76.90
4399;DHT22;2213;49.720;7.296;2022-08-19T14:05:49;27.60;76.60
4399;DHT22;2213;49.720;7.296;2022-08-19T14:08:18;27.50;76.30
4399;DHT22;2213;49.720;7.296;2022-08-19T14:10:47;27.70;75.60
4399;DHT22;2213;49.720;7.296;2022-08-19T14:13:20;27.80;75.70
4399;DHT22;2213;49.720;7.296;2022-08-19T14:15:51;27.90;74.70
4399;DHT22;2213;49.720;7.296;2022-08-19T14:18:20;27.90;74.70
4399;DHT22;2213;49.720;7.296;2022-08-19T14:20:54;28.00;74.70
4399;DHT22;2213;49.720;7.296;2022-08-19T14:23:24;28.00;71.20
4399;DHT22;2213;49.720;7.296;2022-08-19T14:26:02;28.00;71.60
4399;DHT22;2213;49.720;7.296;2022-08-19T14:28:33;28.10;73.90
4399;DHT22;2213;49.720;7.296;2022-08-19T14:31:05;28.10;74.00
4399;DHT22;2213;49.720;7.296;2022-08-19T14:33:36;28.10;74.30
4399;DHT22;2213;49.720;7.296;2022-08-19T14:36:05;28.10;74.30
4399;DHT22;2213;49.720;7.296;2022-08-19T14:38:35;28.20;73.20
4399;DHT22;2213;49.720;7.296;2022-08-19T14:41:10;28.30;71.60
4399;DHT22;2213;49.720;7.296;2022-08-19T14:43:46;28.30;70.50
4399;DHT22;2213;49.720;7.296;2022-08-19T14:46:19;28.40;70.10
4399;DHT22;2213;49.720;7.296;2022-08-19T14:48:56;28.40;69.60
4399;DHT22;2213;49.720;7.296;2022-08-19T14:51:26;28.30;69.50
4399;DHT22;2213;49.720;7.296;2022-08-19T14:53:55;28.50;70.40
4399;DHT22;2213;49.720;7.296;2022-08-19T14:56:26;28.50;69.20
4399;DHT22;2213;49.720;7.296;2022-08-19T14:58:58;28.70;69.60
4399;DHT22;2213;49.720;7.296;2022-08-19T15:01:28;28.90;68.30
4399;DHT22;2213;49.720;7.296;2022-08-19T15:03:56;28.90;67.70
4399;DHT22;2213;49.720;7.296;2022-08-19T15:06:25;29.10;66.60
4399;DHT22;2213;49.720;7.296;2022-08-19T15:08:55;29.00;66.60
4399;DHT22;2213;49.720;7.296;2022-08-19T15:11:30;29.00;66.70
4399;DHT22;2213;49.720;7.296;2022-08-19T15:14:01;29.20;66.70
4399;DHT22;2213;49.720;7.296;2022-08-19T15:16:31;29.20;66.80
4399;DHT22;2213;49.720;7.296;2022-08-19T15:19:00;29.10;67.00
4399;DHT22;2213;49.720;7.296;2022-08-19T15:21:29;29.10;67.50
4399;DHT22;2213;49.720;7.296;2022-08-19T15:23:59;29.10;67.90
4399;DHT22;2213;49.720;7.296;2022-08-19T15:26:29;29.20;68.00
4399;DHT22;2213;49.720;7.296;2022-08-19T15:29:01;29.10;69.00
4399;DHT22;2213;49.720;7.296;2022-08-19T15:31:31;29.20;69.70
4399;DHT22;2213;49.720;7.296;2022-08-19T15:34:04;29.20;69.90
4399;DHT22;2213;49.720;7.296;2022-08-19T15:36:34;29.10;69.40
4399;DHT22;2213;49.720;7.296;2022-08-19T15:39:04;29.20;69.20
4399;DHT22;2213;49.720;7.296;2022-08-19T15:41:36;29.20;68.90
4399;DHT22;2213;49.720;7.296;2022-08-19T15:44:12;29.20;69.10
4399;DHT22;2213;49.720;7.296;2022-08-19T15:46:45;29.40;69.20
4399;DHT22;2213;49.720;7.296;2022-08-19T15:49:17;29.30;68.70
4399;DHT22;2213;49.720;7.296;2022-08-19T15:51:48;29.20;69.10
4399;DHT22;2213;49.720;7.296;2022-08-19T15:54:19;29.10;68.90
4399;DHT22;2213;49.720;7.296;2022-08-19T15:56:49;29.10;68.80
4399;DHT22;2213;49.720;7.296;2022-08-19T15:59:38;28.90;69.30
4399;DHT22;2213;49.720;7.296;2022-08-19T16:02:29;28.90;70.50
4399;DHT22;2213;49.720;7.296;2022-08-19T16:05:22;28.60;70.30
4399;DHT22;2213;49.720;7.296;2022-08-19T16:08:09;28.60;70.80
4399;DHT22;2213;49.720;7.296;2022-08-19T16:10:38;28.50;70.60
4399;DHT22;2213;49.720;7.296;2022-08-19T16:13:09;28.30;71.30
4399;DHT22;2213;49.720;7.296;2022-08-19T16:15:42;28.40;72.10
4399;DHT22;2213;49.720;7.296;2022-08-19T16:18:10;28.10;72.70
4399;DHT22;2213;49.720;7.296;2022-08-19T16:20:42;28.20;73.20
4399;DHT22;2213;49.720;7.296;2022-08-19T16:23:12;28.00;73.60
4399;DHT22;2213;49.720;7.296;2022-08-19T16:25:42;27.90;74.80
4399;DHT22;2213;49.720;7.296;2022-08-19T16:28:13;27.90;74.40
4399;DHT22;2213;49.720;7.296;2022-08-19T16:30:43;27.90;75.10
4399;DHT22;2213;49.720;7.296;2022-08-19T16:33:17;27.80;75.60
4399;DHT22;2213;49.720;7.296;2022-08-19T16:35:49;27.70;76.30
4399;DHT22;2213;49.720;7.296;2022-08-19T16:38:26;27.70;76.60